createdAt,value
2019-04-29T00:01:37.369Z,0.00
2019-04-29T00:04:07.184Z,0.00
2019-04-29T00:06:37.052Z,0.00
2019-04-29T00:09:14.100Z,0.00
2019-04-29T00:11:44.391Z,0.00
2019-04-29T00:14:14.396Z,0.00
2019-04-29T00:16:50.790Z,0.00
2019-04-29T00:19:26.058Z,0.00
2019-04-29T00:21:55.871Z,0.00
2019-04-29T00:24:25.597Z,0.00
2019-04-29T00:26:55.378Z,0.00
2019-04-29T00:29:25.821Z,0.00
2019-04-29T00:31:55.536Z,0.00
2019-04-29T00:34:25.225Z,0.00
2019-04-29T00:37:16.210Z,0.00
2019-04-29T00:40:03.550Z,0.00
2019-04-29T00:42:38.701Z,0.00
2019-04-29T00:45:08.808Z,0.00
2019-04-29T00:47:38.534Z,0.00
2019-04-29T00:50:08.275Z,0.00
2019-04-29T00:52:38.034Z,0.00
2019-04-29T00:55:15.511Z,0.00
2019-04-29T00:57:46.796Z,0.00
2019-04-29T01:00:19.669Z,0.00
2019-04-29T01:02:49.593Z,0.00
2019-04-29T01:05:19.685Z,0.00
2019-04-29T01:07:49.455Z,0.00
2019-04-29T01:10:20.432Z,0.00
2019-04-29T01:12:50.322Z,0.00
2019-04-29T01:15:22.233Z,0.00
2019-04-29T01:17:52.073Z,0.00
2019-04-29T01:20:21.814Z,0.00
2019-04-29T01:22:53.213Z,0.00
2019-04-29T01:25:23.080Z,0.00
2019-04-29T01:27:54.442Z,0.00
2019-04-29T01:30:39.584Z,0.00
2019-04-29T01:33:09.478Z,100.00
2019-04-29T01:35:41.055Z,0.00
2019-04-29T01:38:10.891Z,0.00
2019-04-29T01:40:59.674Z,0.00
2019-04-29T01:43:47.856Z,0.00
2019-04-29T01:46:17.664Z,0.00
2019-04-29T01:48:47.437Z,0.00
2019-04-29T01:51:17.290Z,0.00
2019-04-29T01:53:52.381Z,0.00
2019-04-29T01:56:22.204Z,0.00
2019-04-29T01:58:52.061Z,0.00
2019-04-29T02:01:22.003Z,0.00
2019-04-29T02:04:00.067Z,100.00
2019-04-29T02:06:30.114Z,100.00
2019-04-29T02:09:05.289Z,100.00
2019-04-29T02:11:35.063Z,100.00
2019-04-29T02:14:05.161Z,0.00
2019-04-29T02:16:34.897Z,100.00
2019-04-29T02:19:04.669Z,100.00
2019-04-29T02:21:34.507Z,0.00
2019-04-29T02:24:05.838Z,0.00
2019-04-29T02:26:35.632Z,100.00
2019-04-29T02:29:05.457Z,100.00
2019-04-29T02:31:36.754Z,100.00
2019-04-29T02:34:07.109Z,100.00
2019-04-29T02:36:37.472Z,100.00
2019-04-29T02:39:27.647Z,100.00
2019-04-29T02:42:02.172Z,100.00
2019-04-29T02:44:32.025Z,100.00
2019-04-29T02:47:01.848Z,100.00
2019-04-29T02:49:31.667Z,100.00
2019-04-29T02:52:01.433Z,100.00
2019-04-29T02:54:31.223Z,100.00
2019-04-29T02:57:17.879Z,100.00
2019-04-29T02:59:50.225Z,0.00
2019-04-29T03:02:21.535Z,100.00
2019-04-29T03:04:53.011Z,100.00
2019-04-29T03:07:22.862Z,100.00
2019-04-29T03:09:52.655Z,100.00
2019-04-29T03:12:22.522Z,100.00
2019-04-29T03:14:52.532Z,100.00
2019-04-29T03:17:22.431Z,100.00
2019-04-29T03:20:13.588Z,100.00
2019-04-29T03:22:47.462Z,100.00
2019-04-29T03:25:17.247Z,0.00
2019-04-29T03:27:48.740Z,100.00
2019-04-29T03:30:20.072Z,100.00
2019-04-29T03:32:54.043Z,0.00
2019-04-29T03:35:23.850Z,0.00
2019-04-29T03:37:53.636Z,0.00
2019-04-29T03:40:23.409Z,100.00
2019-04-29T03:42:53.226Z,100.00
2019-04-29T03:45:23.023Z,0.00
2019-04-29T03:47:52.815Z,0.00
2019-04-29T03:50:22.554Z,100.00
2019-04-29T03:52:54.010Z,100.00
2019-04-29T03:55:38.811Z,100.00
2019-04-29T03:57:59.366Z,0.00
2019-04-29T04:00:31.426Z,0.00
2019-04-29T04:03:08.915Z,0.00
2019-04-29T04:05:40.870Z,0.00
2019-04-29T04:08:18.038Z,0.00
2019-04-29T04:10:47.831Z,0.00
2019-04-29T04:13:18.781Z,100.00
2019-04-29T04:15:48.676Z,100.00
2019-04-29T04:18:20.073Z,100.00
2019-04-29T04:20:49.811Z,100.00
2019-04-29T04:23:20.499Z,100.00
2019-04-29T04:25:50.346Z,100.00
2019-04-29T04:28:20.611Z,100.00
2019-04-29T04:30:56.289Z,0.00
2019-04-29T04:33:26.530Z,0.00
2019-04-29T04:35:56.331Z,0.00
2019-04-29T04:38:26.187Z,0.00
2019-04-29T04:41:03.494Z,0.00
2019-04-29T04:43:38.745Z,0.00
2019-04-29T04:46:10.145Z,0.00
2019-04-29T04:49:08.117Z,0.00
2019-04-29T04:51:47.404Z,0.00
2019-04-29T04:57:28.643Z,0.00
2019-04-29T05:00:00.105Z,0.00
2019-04-29T05:02:31.368Z,0.00
2019-04-29T05:05:02.776Z,0.00
2019-04-29T05:07:32.622Z,0.00
2019-04-29T05:10:05.155Z,0.00
2019-04-29T05:12:39.643Z,0.00
2019-04-29T05:15:10.487Z,0.00
2019-04-29T05:17:43.200Z,0.00
2019-04-29T05:20:14.183Z,0.00
2019-04-29T05:22:46.916Z,0.00
2019-04-29T05:25:19.565Z,0.00
2019-04-29T05:27:50.022Z,0.00
2019-04-29T05:30:19.724Z,0.00
2019-04-29T05:32:50.399Z,0.00
2019-04-29T05:35:24.824Z,0.00
2019-04-29T05:37:58.724Z,0.00
2019-04-29T05:40:42.270Z,0.00
2019-04-29T05:43:13.966Z,0.00
2019-04-29T05:45:54.417Z,0.00
2019-04-29T05:48:27.559Z,0.00
2019-04-29T05:51:07.822Z,0.00
2019-04-29T05:53:42.926Z,0.00
2019-04-29T05:56:12.616Z,0.00
2019-04-29T05:58:42.297Z,0.00
2019-04-29T06:01:17.224Z,0.00
2019-04-29T06:03:46.986Z,0.00
2019-04-29T06:06:16.821Z,0.00
2019-04-29T06:08:46.683Z,0.00
2019-04-29T06:11:16.688Z,0.00
2019-04-29T06:13:48.609Z,0.00
2019-04-29T06:16:20.856Z,0.00
2019-04-29T06:18:59.372Z,0.00
2019-04-29T06:21:23.752Z,0.00
2019-04-29T06:23:59.282Z,0.00
2019-04-29T06:26:30.576Z,0.00
2019-04-29T06:29:05.802Z,20.65
2019-04-29T06:31:36.810Z,34.87
2019-04-29T06:34:06.604Z,20.88
2019-04-29T06:36:39.490Z,12.74
2019-04-29T06:39:09.239Z,0.00
2019-04-29T06:41:44.623Z,0.00
2019-04-29T06:44:16.098Z,0.00
2019-04-29T06:46:42.893Z,0.00
2019-04-29T06:49:12.631Z,0.00
2019-04-29T06:51:42.392Z,0.00
2019-04-29T06:54:11.963Z,0.00
2019-04-29T06:56:43.361Z,0.00
2019-04-29T06:59:14.766Z,0.00
2019-04-29T07:01:47.349Z,0.00
2019-04-29T07:04:17.965Z,25.62
2019-04-29T07:06:57.207Z,55.12
2019-04-29T07:09:20.636Z,37.34
2019-04-29T07:11:51.577Z,64.13
2019-04-29T07:14:21.936Z,86.37
2019-04-29T07:16:51.847Z,73.32
2019-04-29T07:19:22.253Z,66.36
2019-04-29T07:21:56.566Z,44.99
2019-04-29T07:24:28.232Z,46.36
2019-04-29T07:27:02.816Z,51.75
2019-04-29T07:29:33.608Z,29.23
2019-04-29T07:32:04.816Z,6.66
2019-04-29T07:34:39.205Z,36.89
2019-04-29T07:37:06.460Z,40.71
2019-04-29T07:39:36.242Z,35.77
2019-04-29T07:42:05.999Z,46.36
2019-04-29T07:44:54.140Z,62.99
2019-04-29T07:47:29.063Z,43.21
2019-04-29T07:49:56.973Z,54.46
2019-04-29T07:52:26.800Z,73.11
2019-04-29T07:54:57.043Z,81.19
2019-04-29T07:57:26.746Z,81.64
2019-04-29T07:59:56.507Z,80.74
2019-04-29T08:02:26.218Z,62.54
2019-04-29T08:04:55.975Z,45.91
2019-04-29T08:07:26.188Z,27.87
2019-04-29T08:09:56.177Z,18.63
2019-04-29T08:12:26.721Z,51.30
2019-04-29T08:14:58.567Z,44.31
2019-04-29T08:17:28.562Z,25.62
2019-04-29T08:20:00.672Z,9.12
2019-04-29T08:22:30.856Z,22.46
2019-04-29T08:25:00.757Z,35.77
2019-04-29T08:27:39.504Z,0.00
2019-04-29T08:30:02.243Z,0.00
2019-04-29T08:32:36.420Z,0.00
2019-04-29T08:35:03.976Z,0.00
2019-04-29T08:37:33.734Z,0.00
2019-04-29T08:40:16.001Z,0.00
2019-04-29T08:42:41.431Z,0.00
2019-04-29T08:45:11.375Z,0.00
2019-04-29T08:47:42.933Z,0.00
2019-04-29T08:50:14.970Z,0.00
2019-04-29T08:52:47.192Z,0.00
2019-04-29T08:55:19.381Z,0.00
2019-04-29T08:57:51.917Z,0.00
2019-04-29T09:00:27.712Z,0.00
2019-04-29T09:02:57.523Z,0.00
2019-04-29T09:05:28.459Z,0.00
2019-04-29T09:08:01.404Z,0.00
2019-04-29T09:10:32.972Z,0.00
2019-04-29T09:13:05.498Z,0.00
2019-04-29T09:15:38.794Z,0.00
2019-04-29T09:18:11.136Z,0.00
2019-04-29T09:20:40.005Z,0.00
2019-04-29T09:23:14.037Z,0.00
2019-04-29T09:25:45.396Z,0.00
2019-04-29T09:28:22.469Z,0.00
2019-04-29T09:30:49.816Z,0.00
2019-04-29T09:33:22.204Z,0.00
2019-04-29T09:35:51.946Z,0.00
2019-04-29T09:38:23.625Z,0.00
2019-04-29T09:41:04.548Z,0.00
2019-04-29T09:43:41.040Z,0.00
2019-04-29T09:46:12.619Z,0.00
2019-04-29T09:48:42.431Z,7.34
2019-04-29T09:51:17.508Z,5.75
2019-04-29T09:53:43.630Z,5.29
2019-04-29T09:56:13.879Z,8.46
2019-04-29T09:58:43.671Z,0.00
2019-04-29T10:01:20.309Z,0.00
2019-04-29T10:04:00.052Z,3.72
2019-04-29T10:06:39.901Z,0.00
2019-04-29T10:09:10.121Z,0.00
2019-04-29T10:11:40.915Z,0.00
2019-04-29T10:14:10.755Z,0.00
2019-04-29T10:16:51.174Z,0.00
2019-04-29T10:19:25.982Z,0.00
2019-04-29T10:21:56.050Z,0.00
2019-04-29T10:24:28.908Z,0.00
2019-04-29T10:26:58.636Z,0.00
2019-04-29T10:29:30.388Z,0.00
2019-04-29T10:32:02.442Z,22.46
2019-04-29T10:34:33.894Z,17.72
2019-04-29T10:37:05.245Z,12.29
2019-04-29T10:39:42.240Z,0.00
2019-04-29T10:42:14.373Z,0.00
2019-04-29T10:44:48.357Z,0.00
2019-04-29T10:47:36.160Z,0.00
2019-04-29T10:50:14.967Z,0.00
2019-04-29T10:52:43.498Z,0.00
2019-04-29T10:55:14.045Z,0.00
2019-04-29T10:57:44.804Z,0.00
2019-04-29T11:00:35.804Z,0.00
2019-04-29T11:03:05.690Z,0.00
2019-04-29T11:05:36.990Z,0.00
2019-04-29T11:08:08.341Z,0.00
2019-04-29T11:10:39.461Z,0.00
2019-04-29T11:13:09.146Z,0.00
2019-04-29T11:15:39.001Z,5.29
2019-04-29T11:18:08.868Z,0.00
2019-04-29T11:20:38.535Z,0.00
2019-04-29T11:23:16.408Z,24.02
2019-04-29T11:26:02.091Z,0.00
2019-04-29T11:28:34.165Z,9.12
2019-04-29T11:31:04.140Z,37.55
2019-04-29T11:33:40.103Z,29.45
2019-04-29T11:36:12.303Z,3.27
2019-04-29T11:38:44.487Z,20.19
2019-04-29T11:41:19.727Z,27.19
2019-04-29T11:43:50.974Z,40.49
2019-04-29T11:46:22.891Z,35.77
2019-04-29T11:48:54.732Z,60.53
2019-04-29T11:51:26.050Z,38.45
2019-04-29T11:53:55.763Z,30.35
2019-04-29T11:56:27.903Z,31.70
2019-04-29T11:59:01.766Z,27.19
2019-04-29T12:01:51.828Z,26.28
2019-04-29T12:04:34.750Z,26.74
2019-04-29T12:07:04.527Z,27.19
2019-04-29T12:09:36.107Z,27.19
2019-04-29T12:12:07.948Z,19.29
2019-04-29T12:14:46.224Z,47.48
2019-04-29T12:17:23.480Z,20.19
2019-04-29T12:19:55.835Z,9.12
2019-04-29T12:22:30.863Z,22.00
2019-04-29T12:25:03.453Z,29.45
2019-04-29T12:27:33.363Z,22.91
2019-04-29T12:30:05.532Z,36.43
2019-04-29T12:32:37.023Z,8.92
2019-04-29T12:35:08.767Z,3.72
2019-04-29T12:37:39.946Z,27.87
2019-04-29T12:40:20.468Z,26.28
2019-04-29T12:42:55.404Z,67.94
2019-04-29T12:45:29.851Z,64.58
2019-04-29T12:47:59.634Z,69.06
2019-04-29T12:50:29.391Z,58.93
2019-04-29T12:52:59.209Z,49.04
2019-04-29T12:55:44.073Z,59.84
2019-04-29T12:58:05.264Z,50.18
2019-04-29T13:00:47.336Z,34.87
2019-04-29T13:03:17.130Z,29.23
2019-04-29T13:06:09.685Z,22.91
2019-04-29T13:08:46.397Z,12.74
2019-04-29T13:11:19.236Z,28.78
2019-04-29T13:13:51.373Z,34.63
2019-04-29T13:16:31.503Z,29.23
2019-04-29T13:19:17.083Z,36.21
2019-04-29T13:21:43.682Z,46.36
2019-04-29T13:24:22.938Z,49.73
2019-04-29T13:26:44.912Z,47.48
2019-04-29T13:29:26.349Z,23.35
2019-04-29T13:31:47.102Z,31.46
2019-04-29T13:34:24.102Z,34.17
2019-04-29T13:37:06.828Z,67.26
2019-04-29T13:39:38.451Z,50.18
2019-04-29T13:41:57.998Z,65.25
2019-04-29T13:44:28.949Z,76.47
2019-04-29T13:47:06.392Z,96.69
2019-04-29T13:49:40.728Z,72.67
2019-04-29T13:52:12.917Z,70.41
2019-04-29T13:54:44.315Z,56.46
2019-04-29T13:57:16.039Z,49.04
2019-04-29T13:59:50.657Z,49.04
2019-04-29T14:02:30.611Z,41.17
2019-04-29T14:05:02.563Z,52.42
2019-04-29T14:07:32.316Z,45.91
2019-04-29T14:10:02.037Z,41.17
2019-04-29T14:15:06.145Z,61.88
2019-04-29T14:17:37.522Z,66.81
2019-04-29T14:18:53.484Z,56.02
2019-04-29T14:20:10.832Z,74.22
2019-04-29T14:22:39.296Z,80.08
2019-04-29T14:25:08.996Z,85.45
2019-04-29T14:27:39.839Z,81.64
2019-04-29T14:30:14.700Z,81.64
2019-04-29T14:32:49.514Z,85.23
2019-04-29T14:35:29.901Z,73.78
2019-04-29T14:38:05.246Z,83.88
2019-04-29T14:40:38.914Z,86.37
2019-04-29T14:43:31.896Z,100.00
2019-04-29T14:46:17.067Z,100.00
2019-04-29T14:48:50.655Z,96.47
2019-04-29T14:51:21.143Z,73.11
2019-04-29T14:53:56.886Z,69.51
2019-04-29T14:56:32.789Z,73.11
2019-04-29T14:59:07.164Z,98.69
2019-04-29T15:01:36.499Z,100.00
2019-04-29T15:04:18.601Z,100.00
2019-04-29T15:06:46.158Z,100.00
2019-04-29T15:09:17.778Z,100.00
2019-04-29T15:12:02.095Z,100.00
2019-04-29T15:14:49.913Z,100.00
2019-04-29T15:17:40.324Z,100.00
2019-04-29T15:20:25.340Z,100.00
2019-04-29T15:22:59.915Z,100.00
2019-04-29T15:25:30.071Z,82.78
2019-04-29T15:27:59.802Z,73.78
2019-04-29T15:30:31.801Z,72.00
2019-04-29T15:33:04.859Z,74.70
2019-04-29T15:35:34.662Z,88.60
2019-04-29T15:38:05.537Z,87.04
2019-04-29T15:40:42.839Z,62.09
2019-04-29T15:43:12.264Z,58.93
2019-04-29T15:45:45.914Z,41.17
2019-04-29T15:48:17.673Z,42.06
2019-04-29T15:50:47.451Z,53.55
2019-04-29T15:53:17.255Z,60.98
2019-04-29T15:55:46.991Z,27.19
2019-04-29T15:58:17.169Z,18.63
2019-04-29T16:00:48.379Z,52.42
2019-04-29T16:03:19.554Z,41.17
2019-04-29T16:06:19.263Z,44.77
2019-04-29T16:08:30.247Z,54.00
2019-04-29T16:11:04.444Z,45.91
2019-04-29T16:13:34.763Z,31.01
2019-04-29T16:16:06.619Z,13.43
2019-04-29T16:18:36.755Z,1.01
2019-04-29T16:21:11.046Z,0.34
2019-04-29T16:23:42.238Z,0.00
2019-04-29T16:26:11.878Z,0.00
2019-04-29T16:28:43.209Z,5.29
2019-04-29T16:31:14.473Z,5.75
2019-04-29T16:33:47.610Z,12.08
2019-04-29T16:36:16.267Z,1.46
2019-04-29T16:38:46.383Z,0.00
2019-04-29T16:41:40.687Z,0.00
2019-04-29T16:44:34.898Z,0.00
2019-04-29T16:46:49.543Z,0.00
2019-04-29T16:49:22.453Z,0.00
2019-04-29T16:51:55.951Z,0.00
2019-04-29T16:56:57.810Z,0.00
2019-04-29T16:59:30.822Z,0.00
2019-04-29T17:02:01.328Z,0.00
2019-04-29T17:04:32.705Z,0.00
2019-04-29T17:07:12.129Z,0.00
2019-04-29T17:09:46.651Z,0.00
2019-04-29T17:12:20.125Z,0.00
2019-04-29T17:15:04.129Z,0.00
2019-04-29T17:17:28.921Z,0.00
2019-04-29T17:19:57.065Z,0.00
2019-04-29T17:22:27.805Z,0.00
2019-04-29T17:25:03.738Z,0.00
2019-04-29T17:27:45.272Z,0.00
2019-04-29T17:30:27.152Z,0.00
2019-04-29T17:32:59.948Z,0.00
2019-04-29T17:35:18.562Z,0.00
2019-04-29T17:35:36.574Z,0.00
2019-04-29T17:38:06.432Z,0.00
2019-04-29T17:40:36.874Z,0.00
2019-04-29T17:43:11.339Z,0.00
2019-04-29T17:45:52.926Z,0.00
2019-04-29T17:48:42.870Z,0.00
2019-04-29T17:51:13.150Z,0.00
2019-04-29T17:53:46.505Z,0.00
2019-04-29T17:56:18.516Z,0.00
2019-04-29T17:58:51.797Z,0.00
2019-04-29T18:01:31.935Z,0.00
2019-04-29T18:04:06.097Z,0.00
2019-04-29T18:06:40.494Z,0.00
2019-04-29T18:09:29.459Z,0.00
2019-04-29T18:12:04.943Z,0.00
2019-04-29T18:14:40.298Z,0.00
2019-04-29T18:17:11.989Z,0.00
2019-04-29T18:20:02.167Z,0.00
2019-04-29T18:23:00.697Z,0.00
2019-04-29T18:25:36.691Z,0.00
2019-04-29T18:28:11.210Z,0.00
2019-04-29T18:30:42.851Z,0.00
2019-04-29T18:33:15.044Z,0.00
2019-04-29T18:35:46.353Z,0.00
2019-04-29T18:38:16.912Z,0.00
2019-04-29T18:40:49.511Z,0.00
2019-04-29T18:43:23.075Z,0.00
2019-04-29T18:45:59.229Z,0.00
2019-04-29T18:48:30.020Z,0.00
2019-04-29T18:50:59.911Z,0.00
2019-04-29T18:53:35.483Z,0.00
2019-04-29T18:56:06.627Z,0.00
2019-04-29T18:58:37.002Z,0.00
2019-04-29T19:01:08.643Z,0.00
2019-04-29T19:03:58.415Z,0.00
2019-04-29T19:06:28.438Z,0.00
2019-04-29T19:09:01.681Z,0.00
2019-04-29T19:11:32.892Z,0.00
2019-04-29T19:14:05.202Z,0.00
2019-04-29T19:16:39.227Z,0.00
2019-04-29T19:19:07.895Z,0.00
2019-04-29T19:21:40.078Z,0.00
2019-04-29T19:24:10.470Z,0.00
2019-04-29T19:26:41.681Z,0.00
2019-04-29T19:29:13.442Z,0.00
2019-04-29T19:31:49.386Z,0.00
2019-04-29T19:34:18.853Z,0.00
2019-04-29T19:36:50.804Z,0.00
2019-04-29T19:39:21.701Z,0.00
2019-04-29T19:41:52.072Z,0.00
2019-04-29T19:44:26.493Z,0.00
2019-04-29T19:46:56.288Z,0.00
2019-04-29T19:49:25.792Z,0.00
2019-04-29T19:51:58.493Z,0.00
2019-04-29T19:54:29.377Z,0.00
2019-04-29T19:57:03.442Z,0.00
2019-04-29T19:59:32.665Z,0.00
2019-04-29T20:02:08.156Z,0.00
2019-04-29T20:04:37.657Z,0.00
2019-04-29T20:07:10.543Z,0.00
2019-04-29T20:09:41.872Z,0.00
2019-04-29T20:12:17.813Z,0.00
2019-04-29T20:14:48.643Z,0.00
2019-04-29T20:17:21.893Z,0.00
2019-04-29T20:19:58.684Z,0.00
2019-04-29T20:22:25.481Z,0.00
2019-04-29T20:25:00.376Z,0.00
2019-04-29T20:27:32.560Z,0.00
2019-04-29T20:30:02.982Z,0.00
2019-04-29T20:32:36.034Z,0.00
2019-04-29T20:35:09.132Z,0.00
2019-04-29T20:37:39.193Z,0.00
2019-04-29T20:40:10.773Z,0.00
2019-04-29T20:42:45.393Z,0.00
2019-04-29T20:45:15.202Z,0.00
2019-04-29T20:47:47.987Z,0.00
2019-04-29T20:50:20.589Z,0.00
2019-04-29T20:52:56.469Z,0.00
2019-04-29T20:55:23.632Z,0.00
2019-04-29T20:57:54.978Z,0.00
2019-04-29T21:00:28.153Z,0.00
2019-04-29T21:02:59.140Z,0.00
2019-04-29T21:05:45.240Z,0.00
2019-04-29T21:08:14.268Z,0.00
2019-04-29T21:10:37.852Z,0.00
2019-04-29T21:13:20.337Z,0.00
2019-04-29T21:15:59.554Z,0.00
2019-04-29T21:18:29.345Z,0.00
2019-04-29T21:21:04.489Z,0.00
2019-04-29T21:23:35.389Z,0.00
2019-04-29T21:26:08.443Z,0.00
2019-04-29T21:28:41.193Z,0.00
2019-04-29T21:31:11.755Z,0.00
2019-04-29T21:33:42.965Z,0.00
2019-04-29T21:36:32.256Z,0.00
2019-04-29T21:39:06.092Z,0.00
2019-04-29T21:41:36.821Z,0.00
2019-04-29T21:44:07.536Z,0.00
2019-04-29T21:46:37.462Z,0.00
2019-04-29T21:49:11.595Z,0.00
2019-04-29T21:51:48.425Z,0.00
2019-04-29T21:54:15.766Z,0.00
2019-04-29T21:56:48.162Z,0.00
2019-04-29T21:59:17.975Z,0.00
2019-04-29T22:01:48.469Z,0.00
2019-04-29T22:04:18.187Z,0.00
2019-04-29T22:06:47.886Z,0.00
2019-04-29T22:09:18.148Z,0.00
2019-04-29T22:11:49.178Z,0.00
2019-04-29T22:14:19.018Z,0.00
2019-04-29T22:16:53.638Z,0.00
2019-04-29T22:19:26.143Z,0.00
2019-04-29T22:21:57.863Z,0.00
2019-04-29T22:24:29.060Z,0.00
2019-04-29T22:27:04.202Z,0.00
2019-04-29T22:29:36.663Z,0.00
2019-04-29T22:32:09.286Z,0.00
2019-04-29T22:34:36.353Z,0.00
2019-04-29T22:37:06.140Z,0.00
2019-04-29T22:39:37.019Z,0.00
2019-04-29T22:42:09.465Z,0.00
2019-04-29T22:44:39.449Z,0.00
2019-04-29T22:47:09.111Z,0.00
2019-04-29T22:49:38.913Z,0.00
2019-04-29T22:52:10.991Z,0.00
2019-04-29T22:54:41.010Z,0.00
2019-04-29T22:57:10.969Z,0.00
2019-04-29T22:59:41.111Z,0.00
2019-04-29T23:02:10.773Z,0.00
2019-04-29T23:04:40.469Z,0.00
2019-04-29T23:07:12.781Z,0.00
2019-04-29T23:09:46.303Z,0.00
2019-04-29T23:12:18.427Z,0.00
2019-04-29T23:14:46.393Z,0.00
2019-04-29T23:17:16.140Z,0.00
2019-04-29T23:19:50.761Z,0.00
2019-04-29T23:22:26.293Z,0.00
2019-04-29T23:25:05.684Z,0.00
2019-04-29T23:27:36.194Z,0.00
2019-04-29T23:30:07.444Z,0.00
2019-04-29T23:32:39.424Z,0.00
2019-04-29T23:35:10.056Z,0.00
2019-04-29T23:37:39.903Z,0.00
2019-04-29T23:40:10.591Z,0.00
2019-04-29T23:42:43.646Z,0.00
2019-04-29T23:45:14.545Z,0.00
2019-04-29T23:47:46.831Z,0.00
2019-04-29T23:50:18.801Z,0.00
2019-04-29T23:52:51.799Z,0.00
2019-04-29T23:55:25.652Z,0.00
2019-04-29T23:58:04.346Z,0.00
